Aérodrome :
LOGIN :

S'inscrire | Disclaimer

   EN    FR    IT 

 










Légende :    VFR   VFR Marginal   IFR   IFR Intensif   IFR Très Intensif
Visi : 
Plafond : 
>= 8 km
>= 3000ft
5 à 8 km
1000 à 3000 ft
1500m à 5 km
500 à 1000 ft
800 à 1500m
200 à 500 ft
< 800m
< 200 ft
Symboles :   Orages  Brouillard  Fortes neiges  Fortes précipitations  Vent > 20 kt
SIGMETs :   Divers  Orages  Givrage  Turbulence  Onde Orograph.  Cendres Volcan.







- Altitude de l'aérodrome : 1202 ft
- Code IATA : IGS


ETSI - Ingolstadt

DERNIER METAR :
  • 190820Z VRB02KT 5000 BR BKN090 M00/M02 Q1019 WHT WHT

METARs EXPIRÉS :
  • 190805Z VRB01KT 5000 BR BKN100 M00/M02 Q1019 WHT WHT
  • 190720Z 19002KT 4000 BR FEW007 BKN100 M00/M02 Q1019 GRN GRN BECMG WHT
  • 190635Z VRB03KT 4000 BR SCT007 BKN110 M00/M02 Q1019 GRN GRN BECMG WHT
  • 190620Z 13001KT 4000 BR BKN007 BKN110 M00/M02 Q1018 GRN GRN BECMG WHT

TAF TAF ETSI
Valide du 19 à 09h jusqu'au 19 à 18h UTC


190815Z 1909/1918 17003KT 5000 BR FEW008 BKN120
BECMG 1910/1912 10003KT 8000 NSW BKN150
BECMG 1916/1918 08002KT 4000 BR SCT050 BKN130
Pas de NOTAMs connus pour ce terrain.



MET'MAP, la Météo Aéronautique d'un coup d'oeil ! - Copyright ORBIFLY Décembre 2007 - Disclaimer

ORBIFLY MET'MAP TEAM :

Programmation & Développement : Alexandra Zaïnal
Conception & Développement : Baudouin d'Aumeries
Co-Programmation & Développement : Marc-Olivier Méhu
Soutien technique & logistique : Manuel Goepfert

Contact : metmap@orbifly.com




SOURCES & CREDITS :

   NOAA